createdAt,value
2017-02-08T00:01:07.879Z,23.59
2017-02-08T00:02:20.567Z,23.57
2017-02-08T00:03:33.818Z,23.47
2017-02-08T00:04:47.066Z,23.41
2017-02-08T00:06:00.314Z,23.45
2017-02-08T00:07:12.993Z,23.47
2017-02-08T00:08:26.238Z,23.49
2017-02-08T00:09:39.488Z,23.49
2017-02-08T00:10:52.170Z,23.44
2017-02-08T00:12:05.418Z,23.44
2017-02-08T00:13:17.545Z,23.45
2017-02-08T00:14:30.223Z,23.47
2017-02-08T00:15:43.479Z,23.5
2017-02-08T00:16:56.926Z,23.45
2017-02-08T00:18:10.175Z,23.47
2017-02-08T00:19:23.422Z,23.45
2017-02-08T00:20:36.670Z,23.45
2017-02-08T00:21:50.113Z,23.44
2017-02-08T00:23:03.360Z,23.39
2017-02-08T00:24:16.619Z,23.44
2017-02-08T00:25:29.864Z,23.41
2017-02-08T00:26:43.110Z,23.49
2017-02-08T00:27:56.561Z,23.41
2017-02-08T00:29:09.809Z,23.5
2017-02-08T00:30:23.060Z,23.54
2017-02-08T00:31:35.741Z,23.47
2017-02-08T00:32:49.190Z,23.44
2017-02-08T00:34:02.443Z,23.41
2017-02-08T00:35:15.122Z,23.44
2017-02-08T00:36:27.233Z,23.37
2017-02-08T00:37:40.482Z,23.42
2017-02-08T00:38:53.729Z,23.41
2017-02-08T00:40:06.978Z,23.44
2017-02-08T00:41:20.229Z,23.42
2017-02-08T00:42:33.482Z,23.45
2017-02-08T00:43:46.929Z,23.39
2017-02-08T00:45:00.175Z,23.41
2017-02-08T00:46:13.426Z,23.42
2017-02-08T00:47:26.674Z,23.31
2017-02-08T00:48:39.924Z,23.38
2017-02-08T00:49:53.370Z,23.35
2017-02-08T00:51:06.618Z,23.31
2017-02-08T00:52:19.865Z,23.31
2017-02-08T00:53:33.117Z,23.31
2017-02-08T00:54:46.366Z,23.34
2017-02-08T00:55:59.616Z,23.31
2017-02-08T00:57:12.867Z,23.23
2017-02-08T00:58:26.121Z,23.26
2017-02-08T00:59:39.372Z,23.34
2017-02-08T01:00:52.248Z,23.31
2017-02-08T01:02:05.495Z,23.32
2017-02-08T01:03:18.743Z,23.37
2017-02-08T01:04:31.990Z,23.26
2017-02-08T01:05:45.247Z,23.34
2017-02-08T01:06:58.493Z,23.34
2017-02-08T01:08:11.173Z,23.19
2017-02-08T01:09:24.422Z,23.23
2017-02-08T01:10:37.675Z,23.16
2017-02-08T01:11:51.134Z,23.32
2017-02-08T01:13:04.385Z,23.23
2017-02-08T01:14:17.064Z,23.26
2017-02-08T01:15:30.322Z,23.32
2017-02-08T01:16:43.771Z,23.35
2017-02-08T01:17:57.027Z,23.23
2017-02-08T01:19:10.278Z,23.31
2017-02-08T01:20:23.571Z,23.23
2017-02-08T01:21:36.822Z,23.21
2017-02-08T01:22:50.278Z,23.29
2017-02-08T01:24:03.548Z,23.22
2017-02-08T01:25:16.838Z,23.16
2017-02-08T01:26:30.147Z,23.21
2017-02-08T01:27:43.641Z,23.16
2017-02-08T01:29:10.905Z,23.16
2017-02-08T01:30:23.627Z,23.14
2017-02-08T01:31:36.902Z,23.06
2017-02-08T01:32:49.699Z,23.06
2017-02-08T01:34:03.091Z,22.97
2017-02-08T01:35:16.388Z,23.07
2017-02-08T01:36:29.651Z,22.99
2017-02-08T01:37:42.903Z,22.97
2017-02-08T01:38:56.455Z,22.89
2017-02-08T01:40:09.723Z,23.04
2017-02-08T01:41:22.973Z,23.03
2017-02-08T01:42:35.674Z,22.99
2017-02-08T01:43:48.601Z,22.96
2017-02-08T01:45:01.899Z,23.06
2017-02-08T01:46:14.594Z,23.04
2017-02-08T01:47:27.857Z,23.09
2017-02-08T01:48:40.543Z,22.97
2017-02-08T01:49:54.006Z,23.11
2017-02-08T01:51:21.260Z,23.12
2017-02-08T01:52:34.064Z,23.07
2017-02-08T01:53:47.664Z,23.06
2017-02-08T01:55:00.349Z,23.03
2017-02-08T01:56:13.605Z,23.11
2017-02-08T01:57:25.712Z,23.15
2017-02-08T01:58:38.960Z,23.12
2017-02-08T02:00:06.190Z,23.03
2017-02-08T02:01:19.438Z,23.03
2017-02-08T02:02:32.691Z,23.15
2017-02-08T02:03:59.921Z,23.12
2017-02-08T02:05:12.600Z,23.04
2017-02-08T02:06:25.848Z,23
2017-02-08T02:07:39.094Z,23.03
2017-02-08T02:08:52.341Z,23.03
2017-02-08T02:10:05.594Z,22.94
2017-02-08T02:11:18.843Z,22.97
2017-02-08T02:12:31.525Z,22.94
2017-02-08T02:13:44.771Z,22.99
2017-02-08T02:14:58.025Z,22.97
2017-02-08T02:16:10.703Z,22.89
2017-02-08T02:17:23.456Z,22.86
2017-02-08T02:18:36.885Z,22.96
2017-02-08T02:19:50.314Z,23.06
2017-02-08T02:21:17.703Z,23.03
2017-02-08T02:22:30.256Z,22.91
2017-02-08T02:23:43.363Z,22.94
2017-02-08T02:24:56.472Z,22.94
2017-02-08T02:26:09.587Z,23.11
2017-02-08T02:27:23.000Z,22.93
2017-02-08T02:28:36.109Z,23.12
2017-02-08T02:29:48.664Z,23.11
2017-02-08T02:31:01.777Z,23.14
2017-02-08T02:32:29.099Z,23.07
2017-02-08T02:33:42.207Z,22.94
2017-02-08T02:34:55.319Z,22.91
2017-02-08T02:36:08.431Z,22.96
2017-02-08T02:37:21.541Z,23.12
2017-02-08T02:38:34.651Z,22.99
2017-02-08T02:39:47.762Z,23.11
2017-02-08T02:41:00.881Z,23.07
2017-02-08T02:42:13.989Z,23.03
2017-02-08T02:43:41.109Z,23.04
2017-02-08T02:44:54.218Z,23.06
2017-02-08T02:46:07.328Z,23.01
2017-02-08T02:47:20.443Z,23.11
2017-02-08T02:48:47.561Z,23.09
2017-02-08T02:50:00.670Z,23.07
2017-02-08T02:51:13.784Z,23.07
2017-02-08T02:52:40.904Z,22.99
2017-02-08T02:53:53.455Z,23.09
2017-02-08T02:55:06.564Z,23.01
2017-02-08T02:56:33.685Z,23.15
2017-02-08T02:57:46.794Z,23.15
2017-02-08T02:58:59.900Z,23.18
2017-02-08T03:00:12.454Z,23.15
2017-02-08T03:01:24.448Z,23.18
2017-02-08T03:02:51.568Z,23.19
2017-02-08T03:04:04.679Z,23.15
2017-02-08T03:05:17.303Z,23.15
2017-02-08T03:06:29.418Z,23.14
2017-02-08T03:07:42.683Z,23.12
2017-02-08T03:08:55.929Z,23.15
2017-02-08T03:10:09.378Z,23.07
2017-02-08T03:11:22.623Z,23.14
2017-02-08T03:12:35.871Z,23.09
2017-02-08T03:13:49.123Z,23.11
2017-02-08T03:15:02.572Z,23.14
2017-02-08T03:16:15.825Z,23.11
2017-02-08T03:17:28.505Z,23.09
2017-02-08T03:18:41.757Z,23.12
2017-02-08T03:19:55.003Z,23.15
2017-02-08T03:21:08.251Z,23.19
2017-02-08T03:22:20.932Z,23.16
2017-02-08T03:23:33.612Z,23.21
2017-02-08T03:24:46.865Z,23.26
2017-02-08T03:26:00.312Z,23.23
2017-02-08T03:27:13.563Z,23.35
2017-02-08T03:28:40.790Z,23.32
2017-02-08T03:29:54.038Z,23.15
2017-02-08T03:31:07.483Z,23.23
2017-02-08T03:32:20.728Z,23.19
2017-02-08T03:33:33.981Z,23.21
2017-02-08T03:34:47.227Z,23.07
2017-02-08T03:36:00.471Z,23.15
2017-02-08T03:37:14.019Z,23.09
2017-02-08T03:38:26.704Z,23.18
2017-02-08T03:39:39.950Z,23.15
2017-02-08T03:40:53.193Z,23.11
2017-02-08T03:42:06.075Z,23.07
2017-02-08T03:43:19.323Z,23.09
2017-02-08T03:44:32.000Z,23.03
2017-02-08T03:45:45.247Z,23.06
2017-02-08T03:46:58.500Z,23
2017-02-08T03:48:11.745Z,23.01
2017-02-08T03:49:24.423Z,23.11
2017-02-08T03:50:37.669Z,23.06
2017-02-08T03:51:50.920Z,23.09
2017-02-08T03:53:04.367Z,23.03
2017-02-08T03:54:17.616Z,23.06
2017-02-08T03:55:30.868Z,23.09
2017-02-08T03:56:44.110Z,23.07
2017-02-08T03:57:57.355Z,23.11
2017-02-08T03:59:10.812Z,23.18
2017-02-08T04:00:24.056Z,23.12
2017-02-08T04:01:37.303Z,23.18
2017-02-08T04:02:50.549Z,23.19
2017-02-08T04:04:03.998Z,23.14
2017-02-08T04:05:16.679Z,23.15
2017-02-08T04:06:29.928Z,23.14
2017-02-08T04:09:10.036Z,23.09
2017-02-08T04:10:23.280Z,23.07
2017-02-08T04:11:35.967Z,23.03
2017-02-08T04:12:49.213Z,23.12
2017-02-08T04:14:02.460Z,23.01
2017-02-08T04:15:15.707Z,22.99
2017-02-08T04:16:28.955Z,22.97
2017-02-08T04:17:42.205Z,23
2017-02-08T04:18:55.453Z,22.99
2017-02-08T04:20:08.702Z,23
2017-02-08T04:21:21.951Z,22.94
2017-02-08T04:22:34.627Z,23.01
2017-02-08T04:23:47.875Z,22.88
2017-02-08T04:25:01.123Z,22.86
2017-02-08T04:26:14.567Z,22.81
2017-02-08T04:27:27.814Z,22.85
2017-02-08T04:28:41.063Z,22.86
2017-02-08T04:30:08.295Z,22.86
2017-02-08T04:31:21.546Z,22.86
2017-02-08T04:32:34.799Z,22.88
2017-02-08T04:33:48.044Z,22.84
2017-02-08T04:35:01.296Z,22.85
2017-02-08T04:36:14.845Z,22.89
2017-02-08T04:37:28.089Z,22.85
2017-02-08T04:38:40.771Z,22.84
2017-02-08T04:39:54.015Z,22.86
2017-02-08T04:41:07.268Z,22.79
2017-02-08T04:42:20.719Z,22.88
2017-02-08T04:43:33.967Z,22.76
2017-02-08T04:44:47.215Z,22.79
2017-02-08T04:46:28.427Z,22.89
2017-02-08T04:47:41.680Z,22.89
2017-02-08T04:48:54.965Z,22.78
2017-02-08T04:50:08.213Z,22.84
2017-02-08T04:51:21.460Z,22.88
2017-02-08T04:52:34.742Z,22.76
2017-02-08T04:53:47.990Z,22.7
2017-02-08T04:55:01.237Z,22.78
2017-02-08T04:56:14.487Z,22.82
2017-02-08T04:57:28.030Z,22.81
2017-02-08T04:58:40.708Z,22.74
2017-02-08T04:59:53.951Z,22.78
2017-02-08T05:01:07.197Z,22.76
2017-02-08T05:02:20.479Z,22.84
2017-02-08T05:03:33.722Z,22.85
2017-02-08T05:04:46.401Z,22.82
2017-02-08T05:05:59.649Z,22.86
2017-02-08T05:07:12.893Z,22.82
2017-02-08T05:08:26.439Z,22.89
2017-02-08T05:09:39.686Z,22.89
2017-02-08T05:10:52.368Z,22.89
2017-02-08T05:12:05.614Z,22.86
2017-02-08T05:13:19.064Z,22.93
2017-02-08T05:14:32.309Z,22.89
2017-02-08T05:15:45.554Z,22.85
2017-02-08T05:16:58.797Z,22.99
2017-02-08T05:18:11.475Z,22.93
2017-02-08T05:19:24.724Z,22.99
2017-02-08T05:20:37.899Z,22.97
2017-02-08T05:21:51.005Z,22.91
2017-02-08T05:23:04.117Z,22.89
2017-02-08T05:24:17.524Z,22.99
2017-02-08T05:25:30.639Z,22.97
2017-02-08T05:26:43.746Z,23
2017-02-08T05:27:56.853Z,23
2017-02-08T05:29:09.962Z,23.06
2017-02-08T05:30:23.269Z,22.99
2017-02-08T05:31:36.378Z,22.85
2017-02-08T05:32:49.485Z,22.88
2017-02-08T05:34:02.599Z,22.89
2017-02-08T05:35:15.347Z,22.97
2017-02-08T05:36:27.897Z,22.93
2017-02-08T05:37:40.446Z,23.04
2017-02-08T05:38:53.556Z,23.03
2017-02-08T05:40:06.671Z,22.99
2017-02-08T05:41:19.781Z,22.89
2017-02-08T05:42:32.888Z,22.99
2017-02-08T05:43:46.004Z,22.99
2017-02-08T05:44:59.114Z,22.99
2017-02-08T05:46:12.228Z,22.89
2017-02-08T05:47:25.340Z,22.88
2017-02-08T05:48:38.449Z,22.85
2017-02-08T05:50:05.572Z,22.88
2017-02-08T05:51:18.324Z,22.93
2017-02-08T05:52:31.431Z,22.94
2017-02-08T05:53:44.540Z,22.89
2017-02-08T05:54:57.649Z,22.85
2017-02-08T05:56:10.200Z,22.82
2017-02-08T05:57:23.308Z,22.85
2017-02-08T05:58:36.417Z,22.86
2017-02-08T05:59:49.528Z,22.89
2017-02-08T06:01:02.636Z,22.76
2017-02-08T06:02:15.743Z,22.82
2017-02-08T06:03:28.863Z,22.82
2017-02-08T06:04:41.409Z,22.78
2017-02-08T06:05:54.518Z,22.76
2017-02-08T06:07:07.626Z,22.79
2017-02-08T06:08:20.975Z,22.74
2017-02-08T06:09:34.082Z,22.79
2017-02-08T06:10:47.189Z,22.75
2017-02-08T06:12:00.300Z,22.74
2017-02-08T06:13:13.049Z,22.66
2017-02-08T06:14:26.156Z,22.66
2017-02-08T06:15:39.271Z,22.7
2017-02-08T06:16:52.385Z,22.72
2017-02-08T06:18:05.492Z,22.67
2017-02-08T06:19:18.804Z,22.63
2017-02-08T06:20:31.916Z,22.64
2017-02-08T06:21:45.024Z,22.64
2017-02-08T06:22:58.137Z,22.67
2017-02-08T06:24:10.891Z,22.74
2017-02-08T06:25:23.999Z,22.66
2017-02-08T06:26:37.112Z,22.72
2017-02-08T06:27:49.667Z,22.64
2017-02-08T06:29:02.774Z,22.67
2017-02-08T06:30:15.524Z,22.64
2017-02-08T06:31:28.632Z,22.66
2017-02-08T06:32:41.741Z,22.64
2017-02-08T06:33:54.847Z,22.61
2017-02-08T06:35:08.159Z,22.52
2017-02-08T06:36:20.710Z,22.49
2017-02-08T06:37:33.835Z,22.46
2017-02-08T06:38:46.946Z,22.56
2017-02-08T06:40:00.053Z,22.52
2017-02-08T06:41:12.903Z,22.57
2017-02-08T06:42:25.454Z,22.52
2017-02-08T06:43:38.562Z,22.59
2017-02-08T06:44:51.668Z,22.63
2017-02-08T06:46:04.778Z,22.57
2017-02-08T06:47:17.328Z,22.6
2017-02-08T06:48:30.435Z,22.49
2017-02-08T06:49:42.988Z,22.49
2017-02-08T06:50:56.105Z,22.52
2017-02-08T06:53:36.335Z,22.51
2017-02-08T06:54:49.442Z,22.48
2017-02-08T06:56:02.851Z,22.42
2017-02-08T06:57:15.957Z,22.45
2017-02-08T06:58:28.510Z,22.49
2017-02-08T06:59:41.057Z,22.51
2017-02-08T07:00:54.166Z,22.49
2017-02-08T07:02:07.575Z,22.49
2017-02-08T07:03:20.683Z,22.49
2017-02-08T07:04:33.795Z,22.46
2017-02-08T07:05:46.898Z,22.51
2017-02-08T07:07:00.014Z,22.51
2017-02-08T07:08:13.128Z,22.49
2017-02-08T07:09:26.238Z,22.51
2017-02-08T07:10:39.384Z,22.49
2017-02-08T07:11:52.493Z,22.48
2017-02-08T07:13:05.603Z,22.48
2017-02-08T07:14:18.187Z,22.51
2017-02-08T07:15:31.296Z,22.48
2017-02-08T07:16:44.402Z,22.52
2017-02-08T07:17:57.547Z,22.49
2017-02-08T07:19:10.860Z,22.51
2017-02-08T07:20:23.973Z,22.52
2017-02-08T07:21:37.084Z,22.54
2017-02-08T07:22:50.194Z,22.54
2017-02-08T07:24:03.302Z,22.48
2017-02-08T07:25:16.416Z,22.46
2017-02-08T07:26:29.525Z,22.44
2017-02-08T07:27:42.632Z,22.44
2017-02-08T07:28:55.740Z,22.44
2017-02-08T07:30:08.588Z,22.51
2017-02-08T07:31:21.696Z,22.46
2017-02-08T07:32:34.806Z,22.44
2017-02-08T07:33:47.918Z,22.44
2017-02-08T07:35:01.229Z,22.45
2017-02-08T07:36:14.338Z,22.44
2017-02-08T07:37:27.447Z,22.39
2017-02-08T07:38:40.557Z,22.35
2017-02-08T07:39:53.665Z,22.41
2017-02-08T07:41:07.076Z,22.49
2017-02-08T07:42:20.185Z,22.41
2017-02-08T07:43:47.305Z,22.41
2017-02-08T07:45:00.713Z,22.48
2017-02-08T07:46:13.820Z,22.46
2017-02-08T07:47:26.928Z,22.49
2017-02-08T07:48:40.037Z,22.52
2017-02-08T07:49:53.144Z,22.45
2017-02-08T07:51:06.258Z,22.46
2017-02-08T07:52:19.372Z,22.46
2017-02-08T07:53:32.477Z,22.45
2017-02-08T07:54:45.027Z,22.44
2017-02-08T07:55:58.435Z,22.51
2017-02-08T07:57:11.548Z,22.46
2017-02-08T07:58:24.098Z,22.49
2017-02-08T07:59:37.206Z,22.49
2017-02-08T08:00:50.312Z,22.48
2017-02-08T08:02:03.067Z,22.46
2017-02-08T08:03:16.176Z,22.54
2017-02-08T08:04:29.286Z,22.51
2017-02-08T08:05:42.393Z,22.54
2017-02-08T08:06:54.942Z,22.52
2017-02-08T08:08:08.053Z,22.49
2017-02-08T08:09:21.160Z,22.51
2017-02-08T08:10:34.267Z,22.45
2017-02-08T08:11:47.380Z,22.48
2017-02-08T08:13:00.488Z,22.44
2017-02-08T08:14:13.597Z,22.39
2017-02-08T08:15:26.706Z,22.42
2017-02-08T08:16:39.818Z,22.42
2017-02-08T08:17:52.937Z,22.39
2017-02-08T08:19:06.044Z,22.38
2017-02-08T08:20:19.229Z,22.38
2017-02-08T08:21:32.473Z,22.39
2017-02-08T08:22:45.725Z,22.39
2017-02-08T08:24:12.952Z,22.44
2017-02-08T08:25:26.196Z,22.41
2017-02-08T08:26:39.442Z,22.42
2017-02-08T08:27:52.687Z,22.44
2017-02-08T08:29:05.937Z,22.42
2017-02-08T08:30:33.167Z,22.36
2017-02-08T08:31:46.418Z,22.39
2017-02-08T08:32:59.865Z,22.39
2017-02-08T08:34:13.111Z,22.39
2017-02-08T08:36:53.587Z,22.33
2017-02-08T08:38:07.036Z,22.27
2017-02-08T08:39:19.719Z,22.38
2017-02-08T08:40:32.398Z,22.26
2017-02-08T08:41:45.647Z,22.27
2017-02-08T08:42:58.327Z,22.41
2017-02-08T08:44:11.772Z,22.38
2017-02-08T08:45:24.452Z,22.29
2017-02-08T08:46:37.701Z,22.3
2017-02-08T08:47:49.805Z,22.3
2017-02-08T08:49:03.260Z,22.27
2017-02-08T08:50:16.506Z,22.26
2017-02-08T08:51:29.752Z,22.29
2017-02-08T08:52:57.013Z,22.3
2017-02-08T08:54:09.893Z,22.27
2017-02-08T08:55:23.140Z,22.33
2017-02-08T08:56:36.387Z,22.2
2017-02-08T08:57:49.636Z,22.29
2017-02-08T08:59:02.883Z,22.27
2017-02-08T09:00:16.328Z,22.17
2017-02-08T09:01:29.580Z,22.3
2017-02-08T09:02:42.826Z,22.29
2017-02-08T09:03:56.074Z,22.29
2017-02-08T09:05:09.655Z,22.38
2017-02-08T09:06:22.903Z,22.36
2017-02-08T09:07:35.585Z,22.35
2017-02-08T09:08:48.837Z,22.42
2017-02-08T09:10:02.084Z,22.38
2017-02-08T09:11:15.062Z,22.38
2017-02-08T09:12:28.339Z,22.42
2017-02-08T09:13:41.585Z,22.29
2017-02-08T09:14:54.835Z,22.3
2017-02-08T09:16:08.097Z,22.31
2017-02-08T09:17:21.345Z,22.35
2017-02-08T09:18:34.593Z,22.39
2017-02-08T09:19:47.842Z,22.42
2017-02-08T09:21:01.089Z,22.42
2017-02-08T09:22:13.968Z,22.48
2017-02-08T09:24:54.448Z,22.41
2017-02-08T09:26:07.894Z,22.45
2017-02-08T09:27:21.140Z,22.44
2017-02-08T09:28:34.388Z,22.44
2017-02-08T09:29:47.635Z,22.44
2017-02-08T09:31:00.883Z,22.45
2017-02-08T09:32:14.137Z,22.46
2017-02-08T09:33:27.389Z,22.44
2017-02-08T09:34:40.634Z,22.51
2017-02-08T09:35:53.881Z,22.48
2017-02-08T09:37:07.326Z,22.44
2017-02-08T09:38:20.572Z,22.51
2017-02-08T09:39:33.825Z,22.44
2017-02-08T09:40:47.071Z,22.46
2017-02-08T09:42:00.321Z,22.54
2017-02-08T09:43:12.999Z,22.49
2017-02-08T09:45:53.477Z,22.48
2017-02-08T09:47:06.925Z,22.48
2017-02-08T09:48:20.170Z,22.63
2017-02-08T09:49:33.418Z,22.52
2017-02-08T09:50:46.592Z,22.52
2017-02-08T09:51:59.703Z,22.49
2017-02-08T09:53:26.265Z,22.54
2017-02-08T09:54:39.372Z,22.52
2017-02-08T09:55:51.921Z,22.49
2017-02-08T09:57:05.030Z,22.57
2017-02-08T09:58:18.139Z,22.49
2017-02-08T09:59:31.246Z,22.51
2017-02-08T10:00:44.356Z,22.59
2017-02-08T10:01:57.471Z,22.64
2017-02-08T10:03:10.580Z,22.63
2017-02-08T10:04:23.690Z,22.69
2017-02-08T10:05:36.799Z,22.67
2017-02-08T10:06:49.911Z,22.69
2017-02-08T10:08:03.023Z,22.69
2017-02-08T10:09:16.132Z,22.82
2017-02-08T10:10:29.241Z,22.86
2017-02-08T10:11:42.350Z,22.79
2017-02-08T10:12:55.460Z,22.81
2017-02-08T10:14:08.574Z,22.81
2017-02-08T10:15:21.888Z,22.78
2017-02-08T10:16:35.121Z,22.81
2017-02-08T10:17:48.228Z,22.79
2017-02-08T10:19:00.218Z,22.76
2017-02-08T10:20:13.327Z,22.84
2017-02-08T10:21:40.447Z,22.79
2017-02-08T10:22:53.559Z,22.75
2017-02-08T10:24:06.670Z,22.85
2017-02-08T10:25:19.983Z,22.86
2017-02-08T10:26:32.537Z,22.97
2017-02-08T10:27:45.646Z,22.97
2017-02-08T10:28:57.077Z,23.11
2017-02-08T10:30:10.184Z,23.04
2017-02-08T10:31:23.493Z,23.07
2017-02-08T10:32:36.600Z,23.03
2017-02-08T10:33:49.709Z,23.12
2017-02-08T10:35:02.262Z,23.09
2017-02-08T10:36:15.368Z,23.15
2017-02-08T10:37:28.480Z,23.18
2017-02-08T10:38:41.596Z,23.16
2017-02-08T10:39:54.707Z,23.18
2017-02-08T10:41:07.814Z,23.12
2017-02-08T10:42:20.363Z,23.21
2017-02-08T10:43:33.472Z,23.22
2017-02-08T10:44:46.581Z,23.31
2017-02-08T10:45:59.688Z,23.35
2017-02-08T10:47:12.797Z,23.31
2017-02-08T10:48:25.904Z,23.41
2017-02-08T10:49:38.455Z,23.41
2017-02-08T10:50:51.565Z,23.38
2017-02-08T10:52:04.684Z,23.41
2017-02-08T10:53:17.794Z,23.44
2017-02-08T10:54:30.903Z,23.39
2017-02-08T10:55:44.009Z,23.52
2017-02-08T10:56:57.121Z,23.64
2017-02-08T10:58:24.545Z,23.63
2017-02-08T10:59:51.665Z,23.75
2017-02-08T11:01:05.382Z,23.71
2017-02-08T11:03:45.633Z,23.89
2017-02-08T11:05:12.756Z,23.96
2017-02-08T11:06:25.862Z,23.97
2017-02-08T11:07:38.717Z,23.94
2017-02-08T11:08:51.838Z,24.08
2017-02-08T11:10:04.949Z,24.11
2017-02-08T11:11:17.503Z,24.16
2017-02-08T11:12:30.615Z,24.18
2017-02-08T11:13:44.025Z,24.16
2017-02-08T11:14:56.013Z,24.23
2017-02-08T11:16:09.127Z,24.23
2017-02-08T11:17:22.235Z,24.31
2017-02-08T11:18:34.809Z,24.29
2017-02-08T11:19:47.917Z,24.31
2017-02-08T11:21:00.029Z,24.27
2017-02-08T11:22:13.283Z,24.3
2017-02-08T11:23:26.532Z,24.36
2017-02-08T11:24:39.989Z,24.41
2017-02-08T11:25:53.239Z,24.36
2017-02-08T11:27:06.486Z,24.31
2017-02-08T11:28:19.738Z,24.46
2017-02-08T11:29:32.991Z,24.45
2017-02-08T11:30:46.269Z,24.51
2017-02-08T11:31:58.961Z,24.52
2017-02-08T11:33:12.332Z,24.63
2017-02-08T11:34:25.602Z,24.6
2017-02-08T11:35:38.870Z,24.59
2017-02-08T11:36:52.125Z,24.77
2017-02-08T11:38:05.403Z,24.75
2017-02-08T11:39:18.739Z,24.82
2017-02-08T11:40:58.739Z,24.87
2017-02-08T11:42:40.046Z,24.94
2017-02-08T11:44:07.305Z,25.02
2017-02-08T11:45:20.303Z,24.97
2017-02-08T11:46:33.717Z,24.89
2017-02-08T11:47:46.551Z,24.99
2017-02-08T11:48:59.324Z,24.94
2017-02-08T11:50:12.170Z,24.97
2017-02-08T11:51:25.717Z,24.94
2017-02-08T11:52:38.963Z,25.04
2017-02-08T11:53:51.650Z,25.02
2017-02-08T11:55:04.897Z,24.99
2017-02-08T11:56:17.883Z,25.09
2017-02-08T11:57:31.134Z,25.08
2017-02-08T11:58:44.384Z,25.12
2017-02-08T11:59:57.635Z,25.09
2017-02-08T12:01:10.876Z,25.17
2017-02-08T12:02:23.756Z,25.2
2017-02-08T12:03:36.452Z,25.23
2017-02-08T12:05:30.410Z,25.39
2017-02-08T12:06:44.282Z,25.44
2017-02-08T12:08:11.513Z,25.45
2017-02-08T12:09:39.358Z,25.44
2017-02-08T12:10:52.035Z,25.49
2017-02-08T12:12:04.719Z,25.57
2017-02-08T12:13:17.968Z,25.57
2017-02-08T12:14:31.218Z,25.67
2017-02-08T12:15:44.467Z,25.63
2017-02-08T12:16:57.719Z,25.6
2017-02-08T12:18:11.167Z,25.79
2017-02-08T12:19:24.412Z,25.76
2017-02-08T12:20:37.669Z,25.79
2017-02-08T12:21:50.916Z,25.9
2017-02-08T12:23:04.466Z,25.9
2017-02-08T12:24:31.698Z,25.91
2017-02-08T12:25:58.930Z,25.96
2017-02-08T12:27:12.181Z,25.91
2017-02-08T12:29:52.293Z,26.12
2017-02-08T12:31:05.541Z,26.13
2017-02-08T12:32:18.790Z,26.09
2017-02-08T12:33:30.905Z,26.08
2017-02-08T12:34:44.162Z,26.19
2017-02-08T12:35:57.410Z,26.28
2017-02-08T12:37:10.719Z,26.54
2017-02-08T12:38:22.267Z,26.65
2017-02-08T12:39:35.736Z,26.87
2017-02-08T12:40:49.017Z,27.03
2017-02-08T12:42:01.166Z,26.97
2017-02-08T12:43:13.889Z,27.06
2017-02-08T12:44:27.241Z,27.12
2017-02-08T12:45:39.464Z,27.12
2017-02-08T12:46:52.873Z,27.33
2017-02-08T12:49:33.465Z,27.63
2017-02-08T12:50:46.963Z,27.69
2017-02-08T12:52:00.477Z,27.95
2017-02-08T12:53:12.781Z,28.14
2017-02-08T12:54:25.698Z,28.4
2017-02-08T12:55:53.110Z,28.64
2017-02-08T12:57:06.622Z,28.79
2017-02-08T12:58:20.111Z,28.95
2017-02-08T12:59:33.607Z,29.12
2017-02-08T13:00:46.941Z,29.35
2017-02-08T13:01:59.622Z,29.45
2017-02-08T13:03:12.878Z,29.58
2017-02-08T13:04:40.118Z,29.86
2017-02-08T13:05:53.371Z,30.13
2017-02-08T13:07:06.059Z,30.3
2017-02-08T13:08:19.323Z,30.32
2017-02-08T13:09:32.584Z,30.53
2017-02-08T13:10:45.843Z,30.54
2017-02-08T13:11:59.099Z,30.38
2017-02-08T13:13:12.354Z,30.18
2017-02-08T13:14:25.609Z,30.03
2017-02-08T13:15:39.068Z,30.01
2017-02-08T13:16:52.349Z,29.99
2017-02-08T13:18:05.607Z,30.04
2017-02-08T13:19:18.293Z,29.89
2017-02-08T13:20:31.551Z,29.86
2017-02-08T13:21:44.803Z,29.76
2017-02-08T13:22:58.057Z,29.81
2017-02-08T13:24:10.745Z,29.76
2017-02-08T13:25:24.004Z,29.81
2017-02-08T13:26:37.497Z,29.63
2017-02-08T13:27:51.005Z,29.42
2017-02-08T13:31:58.896Z,29.41
2017-02-08T13:33:13.595Z,29.26
2017-02-08T13:34:44.533Z,29.14
2017-02-08T13:35:57.818Z,29.1
2017-02-08T13:37:11.330Z,28.94
2017-02-08T13:38:24.595Z,28.83
2017-02-08T13:39:37.901Z,28.92
2017-02-08T13:40:52.016Z,29.12
2017-02-08T13:42:04.738Z,29.27
2017-02-08T13:43:18.369Z,29.42
2017-02-08T13:45:57.756Z,29.99
2017-02-08T13:47:11.032Z,30.1
2017-02-08T13:48:23.737Z,30.29
2017-02-08T13:49:36.454Z,30.48
2017-02-08T13:50:49.722Z,30.72
2017-02-08T13:52:17.180Z,30.94
2017-02-08T13:53:30.444Z,31.05
2017-02-08T13:54:57.692Z,31.05
2017-02-08T13:56:09.835Z,31.27
2017-02-08T13:57:23.305Z,31.15
2017-02-08T13:58:36.575Z,30.9
2017-02-08T14:00:05.668Z,30.66
2017-02-08T14:01:18.399Z,30.46
2017-02-08T14:02:31.309Z,30.45
2017-02-08T14:03:44.007Z,30.37
2017-02-08T14:04:57.283Z,30.32
2017-02-08T14:06:09.491Z,30.3
2017-02-08T14:07:36.374Z,30.36
2017-02-08T14:08:48.522Z,30.37
2017-02-08T14:10:01.809Z,30.32
2017-02-08T14:11:43.257Z,30.26
2017-02-08T14:13:10.528Z,30.11
2017-02-08T14:14:23.283Z,30.08
2017-02-08T14:15:35.981Z,29.95
2017-02-08T14:16:49.511Z,29.63
2017-02-08T14:18:01.640Z,29.45
2017-02-08T14:19:14.553Z,29.32
2017-02-08T14:20:27.772Z,29.17
2017-02-08T14:21:41.326Z,28.97
2017-02-08T14:22:54.482Z,28.95
2017-02-08T14:24:08.200Z,28.92
2017-02-08T14:27:02.508Z,29
2017-02-08T14:28:15.118Z,29.2
2017-02-08T14:30:54.875Z,29.41
2017-02-08T14:41:46.880Z,29.64
2017-02-08T14:41:49.253Z,28.6
2017-02-08T14:43:02.399Z,28.72
2017-02-08T14:44:15.588Z,28.46
2017-02-08T14:45:28.159Z,28.4
2017-02-08T14:46:41.289Z,28.4
2017-02-08T14:47:54.410Z,28.67
2017-02-08T14:49:07.531Z,28.8
2017-02-08T14:50:20.685Z,28.77
2017-02-08T14:51:33.810Z,28.85
2017-02-08T14:52:47.131Z,28.98
2017-02-08T14:54:00.276Z,29
2017-02-08T14:55:12.286Z,29.11
2017-02-08T14:56:39.421Z,29.25
2017-02-08T14:57:52.544Z,29.12
2017-02-08T14:59:05.139Z,29.18
2017-02-08T15:00:17.703Z,29.27
2017-02-08T15:01:30.827Z,29.29
2017-02-08T15:02:58.170Z,29.47
2017-02-08T15:04:10.736Z,29.51
2017-02-08T15:05:37.939Z,29.52
2017-02-08T15:06:51.204Z,29.85
2017-02-08T15:08:04.460Z,30.06
2017-02-08T15:09:17.147Z,29.76
2017-02-08T15:10:29.834Z,29.41
2017-02-08T15:11:42.523Z,29.3
2017-02-08T15:12:55.218Z,29.29
2017-02-08T15:14:08.486Z,29.35
2017-02-08T15:15:20.604Z,29.25
2017-02-08T15:16:33.859Z,28.97
2017-02-08T15:17:47.116Z,29
2017-02-08T15:19:00.374Z,29.03
2017-02-08T15:20:13.068Z,28.91
2017-02-08T15:21:40.311Z,28.52
2017-02-08T15:22:53.772Z,28.28
2017-02-08T15:24:07.023Z,28.21
2017-02-08T15:25:19.711Z,28.28
2017-02-08T15:26:32.969Z,28.39
2017-02-08T15:27:46.232Z,28.5
2017-02-08T15:28:59.484Z,28.6
2017-02-08T15:30:12.741Z,28.69
2017-02-08T15:31:26.002Z,28.45
2017-02-08T15:32:39.263Z,28.42
2017-02-08T15:35:19.755Z,28.28
2017-02-08T15:36:33.015Z,27.98
2017-02-08T15:37:46.273Z,27.84
2017-02-08T15:38:59.534Z,27.83
2017-02-08T15:40:12.232Z,27.9
2017-02-08T15:41:25.494Z,27.78
2017-02-08T15:42:38.749Z,27.84
2017-02-08T15:43:52.009Z,27.71
2017-02-08T15:45:05.265Z,27.77
2017-02-08T15:46:17.955Z,27.63
2017-02-08T15:47:31.217Z,27.68
2017-02-08T15:48:44.471Z,27.68
2017-02-08T15:49:57.160Z,27.63
2017-02-08T15:51:09.857Z,27.66
2017-02-08T15:53:49.259Z,27.63
2017-02-08T15:55:02.524Z,27.55
2017-02-08T15:56:15.820Z,27.42
2017-02-08T15:57:29.080Z,27.48
2017-02-08T15:58:42.344Z,27.46
2017-02-08T15:59:55.045Z,27.46
2017-02-08T16:01:08.509Z,27.34
2017-02-08T16:02:21.815Z,27.18
2017-02-08T16:03:34.506Z,26.96
2017-02-08T16:04:47.792Z,26.76
2017-02-08T16:06:01.263Z,26.78
2017-02-08T16:07:14.525Z,26.87
2017-02-08T16:08:27.781Z,26.96
2017-02-08T16:09:41.041Z,27.09
2017-02-08T16:10:54.300Z,27.08
2017-02-08T16:12:07.760Z,27.15
2017-02-08T16:13:21.028Z,27.18
2017-02-08T16:14:34.342Z,27.11
2017-02-08T16:16:01.881Z,26.98
2017-02-08T16:17:15.135Z,26.84
2017-02-08T16:18:28.401Z,26.97
2017-02-08T16:19:41.669Z,26.84
2017-02-08T16:20:54.936Z,26.88
2017-02-08T16:22:08.217Z,26.87
2017-02-08T16:23:20.916Z,26.88
2017-02-08T16:24:34.188Z,27.08
2017-02-08T16:25:47.444Z,26.98
2017-02-08T16:27:00.703Z,27.02